Aeroporto :
LOGIN :

Iscrizione | Disclaimer

   EN    FR    IT 

 










Sommario :    VFR   VFR Marginale   IFR   IFR Intensivo   IFR Molto Intensivo
Visibilità : 
Base nubi : 
>= 8 km
>= 3000ft
5 / 8 km
1000 / 3000 ft
1500m / 5 km
500 / 1000 ft
800 / 1500m
200 / 500 ft
< 800m
< 200 ft
Simboli :   Temporali  Nebbia  Neve Forte  Precipitazioni Forti  Vento > 20 kt
SIGMETs :   Varie  Temporali  Ghiacco  Turbolenza  Onda orograficha  Ceneri Vulcaniche






- Altitudine del aeroporto : 135 ft
- Codice IATA : BOJ


LBBG - Burgas

ULTIMO METAR :
  • 221400Z 25012KT CAVOK 09/M04 Q1024 NOSIG

METARs OBSOLETI :
  • 221330Z 25017KT CAVOK 10/M03 Q1024 NOSIG
  • 221300Z 24014KT CAVOK 10/M03 Q1025 NOSIG
  • 221230Z 24016KT CAVOK 10/M03 Q1025 NOSIG
  • 221200Z 26016KT CAVOK 10/M03 Q1026 NOSIG
  • 221130Z 26016KT CAVOK 09/M02 Q1027 NOSIG

TAF TAF LBBG
Valido dal 22 a 12 ore il 23 a 12 ore UTC


221100Z 2212/2312 27018KT CAVOK
BECMG 2223/2301 35020KT
TEMPO 2303/2308 SCT020



MetMap, La meteo Aeronautica in un colpo d'occhio ! - Copyright ORBIFLY Dicembre 2007 - Disclaimer

ORBIFLY MET'MAP TEAM :

Programmazione e sviluppo : Alexandra Zaïnal
Concezione : Baudouin d'Aumeries
Aiuto per la programmazione : Marc-Olivier Méhu
Supporto tecnico e logistico : Manuel Goepfert
Aiuto per la traduzione : Arnaldo La Scala

Contatto : metmap@orbifly.com




FONTI E CREDITI :

   NOAA